createdAt,value
2023-01-09T00:01:32.807Z,93.96
2023-01-09T00:03:34.093Z,94.04
2023-01-09T00:05:35.225Z,94.13
2023-01-09T00:07:36.958Z,94.26
2023-01-09T00:09:38.346Z,94.46
2023-01-09T00:11:39.979Z,94.31
2023-01-09T00:13:41.429Z,94.02
2023-01-09T00:15:42.385Z,94
2023-01-09T00:17:44.128Z,94.03
2023-01-09T00:21:47.011Z,94.22
2023-01-09T00:23:48.407Z,94.11
2023-01-09T00:25:50.200Z,94.25
2023-01-09T00:27:51.555Z,94.45
2023-01-09T00:31:54.562Z,94.71
2023-01-09T00:33:56.458Z,94.82
2023-01-09T00:35:58.300Z,94.82
2023-01-09T00:38:00.110Z,94.95
2023-01-09T00:40:01.221Z,95.1
2023-01-09T00:42:02.317Z,95.14
2023-01-09T00:44:03.500Z,94.7
2023-01-09T00:46:04.593Z,94.7
2023-01-09T00:48:06.012Z,94.7
2023-01-09T00:50:07.474Z,94.86
2023-01-09T00:52:09.007Z,94.89
2023-01-09T00:54:10.852Z,94.89
2023-01-09T00:56:11.882Z,94.9
2023-01-09T00:58:13.709Z,94.96
2023-01-09T01:00:15.635Z,95.1
2023-01-09T01:04:18.982Z,95.25
2023-01-09T01:06:20.765Z,95.25
2023-01-09T01:08:21.924Z,95.26
2023-01-09T01:10:23.686Z,95.36
2023-01-09T01:14:27.200Z,95.52
2023-01-09T01:16:28.965Z,95.6
2023-01-09T01:18:30.015Z,95.7
2023-01-09T01:20:31.394Z,95.69
2023-01-09T01:22:32.614Z,95.47
2023-01-09T01:24:33.632Z,95.55
2023-01-09T01:26:35.249Z,95.56
2023-01-09T01:28:36.572Z,95.39
2023-01-09T01:30:38.504Z,94.98
2023-01-09T01:32:39.847Z,94.89
2023-01-09T01:34:41.377Z,94.87
2023-01-09T01:36:42.795Z,94.69
2023-01-09T01:38:44.734Z,94.49
2023-01-09T01:40:45.763Z,94.23
2023-01-09T01:42:47.187Z,94.29
2023-01-09T01:44:49.102Z,94.32
2023-01-09T01:46:50.593Z,94.32
2023-01-09T01:48:52.392Z,94.07
2023-01-09T01:50:54.267Z,93.81
2023-01-09T01:52:55.479Z,93.88
2023-01-09T01:56:57.761Z,93.67
2023-01-09T01:58:58.986Z,93.69
2023-01-09T02:01:00.821Z,93.62
2023-01-09T02:03:02.278Z,93.48
2023-01-09T02:05:03.424Z,93.34
2023-01-09T02:07:04.675Z,93.18
2023-01-09T02:09:06.380Z,93.03
2023-01-09T02:11:07.394Z,93.08
2023-01-09T02:13:08.763Z,92.99
2023-01-09T02:15:10.444Z,93.05
2023-01-09T02:17:11.819Z,93.08
2023-01-09T02:19:13.011Z,93.06
2023-01-09T02:21:14.594Z,92.69
2023-01-09T02:23:16.417Z,92.82
2023-01-09T02:25:18.294Z,93.06
2023-01-09T02:27:19.702Z,93.14
2023-01-09T02:29:21.488Z,93.1
2023-01-09T02:31:22.633Z,93.02
2023-01-09T02:33:24.305Z,92.4
2023-01-09T02:35:25.776Z,92.21
2023-01-09T02:39:28.546Z,92.74
2023-01-09T02:41:29.911Z,92.68
2023-01-09T02:43:31.828Z,92.8
2023-01-09T02:45:33.734Z,92.39
2023-01-09T02:47:35.311Z,92.46
2023-01-09T02:49:36.751Z,92.61
2023-01-09T02:51:37.987Z,92.59
2023-01-09T02:53:39.273Z,92.52
2023-01-09T02:55:40.623Z,92.6
2023-01-09T02:57:42.358Z,92.33
2023-01-09T02:59:43.352Z,92.23
2023-01-09T03:01:44.711Z,92.14
2023-01-09T03:03:46.225Z,92.21
2023-01-09T03:05:47.525Z,92.47
2023-01-09T03:07:49.434Z,92.64
2023-01-09T03:11:51.906Z,92.42
2023-01-09T03:13:52.978Z,92.14
2023-01-09T03:15:54.578Z,92.14
2023-01-09T03:17:56.191Z,91.55
2023-01-09T03:21:59.216Z,91.5
2023-01-09T03:24:00.585Z,91.58
2023-01-09T03:26:02.075Z,91.68
2023-01-09T03:28:04.023Z,91.59
2023-01-09T03:30:05.340Z,91.64
2023-01-09T03:32:06.750Z,91.37
2023-01-09T03:34:08.316Z,90.83
2023-01-09T03:36:09.358Z,90.69
2023-01-09T03:38:11.109Z,90.69
2023-01-09T03:40:12.196Z,90.53
2023-01-09T03:42:14.023Z,90.49
2023-01-09T03:44:15.245Z,90.36
2023-01-09T03:46:17.109Z,90.13
2023-01-09T03:48:18.526Z,90.36
2023-01-09T03:50:20.043Z,90.05
2023-01-09T03:52:21.148Z,90.27
2023-01-09T03:54:22.632Z,90
2023-01-09T03:56:23.845Z,90.04
2023-01-09T03:58:25.340Z,90.35
2023-01-09T04:00:26.490Z,90.34
2023-01-09T04:04:29.555Z,90.33
2023-01-09T04:06:30.652Z,90.64
2023-01-09T04:10:33.770Z,89.55
2023-01-09T04:12:35.394Z,89.88
2023-01-09T04:14:36.933Z,90.33
2023-01-09T04:16:38.221Z,89.6
2023-01-09T04:20:40.667Z,89.79
2023-01-09T04:22:42.101Z,89.56
2023-01-09T04:24:43.539Z,90.09
2023-01-09T04:26:44.832Z,90.18
2023-01-09T04:28:46.635Z,90.22
2023-01-09T04:30:47.994Z,89.94
2023-01-09T04:32:49.182Z,89.73
2023-01-09T04:34:50.580Z,90.02
2023-01-09T04:36:51.845Z,90.29
2023-01-09T04:38:52.982Z,90.58
2023-01-09T04:40:54.897Z,90.61
2023-01-09T04:42:56.459Z,91.07
2023-01-09T04:44:57.965Z,90.74
2023-01-09T04:46:59.174Z,90.96
2023-01-09T04:49:00.470Z,90.64
2023-01-09T04:51:01.630Z,89.59
2023-01-09T04:53:03.070Z,89.16
2023-01-09T04:55:04.861Z,89.29
2023-01-09T04:57:06.045Z,88.9
2023-01-09T04:59:07.669Z,89.43
2023-01-09T05:03:11.174Z,90.31
2023-01-09T05:05:12.805Z,90.6
2023-01-09T05:07:14.707Z,90.54
2023-01-09T05:09:16.486Z,90.88
2023-01-09T05:11:18.324Z,90.51
2023-01-09T05:13:19.639Z,89.83
2023-01-09T05:15:21.392Z,90.26
2023-01-09T05:17:22.992Z,90.59
2023-01-09T05:19:24.957Z,90.44
2023-01-09T05:21:25.977Z,90.56
2023-01-09T05:23:27.015Z,90.78
2023-01-09T05:26:12.069Z,90.49
2023-01-09T05:28:13.420Z,90.85
2023-01-09T05:30:17.958Z,90.24
2023-01-09T05:32:17.034Z,90.76
2023-01-09T05:34:18.742Z,91.01
2023-01-09T05:36:19.952Z,89.88
2023-01-09T05:40:24.806Z,90.08
2023-01-09T05:42:23.911Z,90.04
2023-01-09T05:44:25.069Z,89.99
2023-01-09T05:46:26.889Z,90.04
2023-01-09T05:48:28.625Z,90.39
2023-01-09T05:50:29.925Z,90.46
2023-01-09T05:52:30.886Z,90.78
2023-01-09T05:54:32.667Z,90.36
2023-01-09T05:56:34.479Z,90.54
2023-01-09T05:58:36.245Z,90.63
2023-01-09T06:00:38.087Z,90
2023-01-09T06:02:40.065Z,90.19
2023-01-09T06:04:41.366Z,90.01
2023-01-09T06:06:42.943Z,90.28
2023-01-09T06:08:44.130Z,89.59
2023-01-09T06:12:47.227Z,89.61
2023-01-09T06:14:48.334Z,88.92
2023-01-09T06:16:49.768Z,88.59
2023-01-09T06:18:51.344Z,88.95
2023-01-09T06:22:54.781Z,88.68
2023-01-09T06:24:55.941Z,88.46
2023-01-09T06:26:56.948Z,89.22
2023-01-09T06:28:57.940Z,89.15
2023-01-09T06:30:59.412Z,89.31
2023-01-09T06:33:00.412Z,88.8
2023-01-09T06:35:01.917Z,88.8
2023-01-09T06:37:03.636Z,89.16
2023-01-09T06:39:04.975Z,88.6
2023-01-09T06:41:06.590Z,88.46
2023-01-09T06:43:08.227Z,88.51
2023-01-09T06:45:09.670Z,88.77
2023-01-09T06:47:11.092Z,88.35
2023-01-09T06:49:12.957Z,88.71
2023-01-09T06:51:14.687Z,88.41
2023-01-09T06:53:16.326Z,88.72
2023-01-09T06:55:17.766Z,88.44
2023-01-09T06:57:19.415Z,88.79
2023-01-09T06:59:21.317Z,88.7
2023-01-09T07:01:22.766Z,88.26
2023-01-09T07:05:26.237Z,87.48
2023-01-09T07:07:27.535Z,87.77
2023-01-09T07:11:30.195Z,88.15
2023-01-09T07:13:32.156Z,88.62
2023-01-09T07:15:33.433Z,88.62
2023-01-09T07:17:34.528Z,88.81
2023-01-09T07:19:35.794Z,88.95
2023-01-09T07:21:37.652Z,89.19
2023-01-09T07:23:39.384Z,89.2
2023-01-09T07:25:40.549Z,89.22
2023-01-09T07:27:42.236Z,88.79
2023-01-09T07:29:44.135Z,88.48
2023-01-09T07:31:45.147Z,88.03
2023-01-09T07:33:46.276Z,87.5
2023-01-09T07:35:47.701Z,87.82
2023-01-09T07:37:49.000Z,87.74
2023-01-09T07:39:50.755Z,87.69
2023-01-09T07:41:52.283Z,87.55
2023-01-09T07:43:53.472Z,87.66
2023-01-09T07:45:54.731Z,87.1
2023-01-09T07:47:56.507Z,87.98
2023-01-09T07:49:58.477Z,88.14
2023-01-09T07:54:01.639Z,87.38
2023-01-09T07:56:03.234Z,87.52
2023-01-09T07:58:04.290Z,88.53
2023-01-09T08:00:05.711Z,88.8
2023-01-09T08:04:09.048Z,88.42
2023-01-09T08:06:10.676Z,88.58
2023-01-09T08:08:11.831Z,88.53
2023-01-09T08:10:12.952Z,88.26
2023-01-09T08:12:14.370Z,87.6
2023-01-09T08:14:15.534Z,87.27
2023-01-09T08:16:16.548Z,87.3
2023-01-09T08:18:17.979Z,86.93
2023-01-09T08:20:19.544Z,87.47
2023-01-09T08:22:20.719Z,87.46
2023-01-09T08:24:22.372Z,87.56
2023-01-09T08:26:23.391Z,87.39
2023-01-09T08:28:24.462Z,87.53
2023-01-09T08:30:26.181Z,88.15
2023-01-09T08:32:27.287Z,87.88
2023-01-09T08:34:29.020Z,88.11
2023-01-09T08:36:30.448Z,87.46
2023-01-09T08:38:32.356Z,88.23
2023-01-09T08:40:34.104Z,88.16
2023-01-09T08:42:35.623Z,87.31
2023-01-09T08:46:38.853Z,88.25
2023-01-09T08:48:40.222Z,88.07
2023-01-09T08:50:41.477Z,87.48
2023-01-09T08:52:43.426Z,87.66
2023-01-09T08:54:44.839Z,86.68
2023-01-09T08:56:46.156Z,86.77
2023-01-09T08:58:47.472Z,87.19
2023-01-09T09:00:48.954Z,87.11
2023-01-09T09:02:50.414Z,86.78
2023-01-09T09:04:52.105Z,86.32
2023-01-09T09:06:53.548Z,85.9
2023-01-09T09:08:54.599Z,85.65
2023-01-09T09:10:56.010Z,85.97
2023-01-09T09:12:57.079Z,84.98
2023-01-09T09:14:58.567Z,84.93
2023-01-09T09:19:01.748Z,84.54
2023-01-09T09:21:03.159Z,84.39
2023-01-09T09:23:04.709Z,84.77
2023-01-09T09:25:06.322Z,84.43
2023-01-09T09:29:10.120Z,83.94
2023-01-09T09:31:11.630Z,83.37
2023-01-09T09:33:13.483Z,83.22
2023-01-09T09:35:14.456Z,82.91
2023-01-09T09:37:15.788Z,83.07
2023-01-09T09:39:17.130Z,82.99
2023-01-09T09:41:18.053Z,83.06
2023-01-09T09:43:19.054Z,82.55
2023-01-09T09:45:20.342Z,82.68
2023-01-09T09:47:21.950Z,82.66
2023-01-09T09:49:23.178Z,82.57
2023-01-09T09:51:24.167Z,82.61
2023-01-09T09:53:25.229Z,82.15
2023-01-09T09:55:26.718Z,81.99
2023-01-09T09:57:28.590Z,82.08
2023-01-09T09:59:30.247Z,81.8
2023-01-09T10:01:31.305Z,82.2
2023-01-09T10:03:34.025Z,82.05
2023-01-09T10:05:34.278Z,82.23
2023-01-09T10:07:35.749Z,81.65
2023-01-09T10:09:36.919Z,81.26
2023-01-09T10:11:38.536Z,81.6
2023-01-09T10:13:39.705Z,81.62
2023-01-09T10:17:43.265Z,81.56
2023-01-09T10:19:44.441Z,81.21
2023-01-09T10:21:46.094Z,81.67
2023-01-09T10:23:47.600Z,81.1
2023-01-09T10:27:50.845Z,80.97
2023-01-09T10:29:52.708Z,81.42
2023-01-09T10:31:54.432Z,81.51
2023-01-09T10:33:56.047Z,81.8
2023-01-09T10:35:57.719Z,81.19
2023-01-09T10:37:58.867Z,80.85
2023-01-09T10:40:00.322Z,80.92
2023-01-09T10:42:01.868Z,80.54
2023-01-09T10:44:02.347Z,80.81
2023-01-09T10:46:04.217Z,80.04
2023-01-09T10:48:05.340Z,80.51
2023-01-09T10:50:07.032Z,80.68
2023-01-09T10:52:08.209Z,80.42
2023-01-09T10:54:09.411Z,80.47
2023-01-09T10:56:11.225Z,80.05
2023-01-09T11:00:14.437Z,80.26
2023-01-09T11:02:15.943Z,79.73
2023-01-09T11:04:17.559Z,80.4
2023-01-09T11:06:18.494Z,80.06
2023-01-09T11:08:19.730Z,80.2
2023-01-09T11:10:22.278Z,80.29
2023-01-09T11:12:23.032Z,80.18
2023-01-09T11:14:24.281Z,80.16
2023-01-09T11:16:25.581Z,79.98
2023-01-09T11:18:27.311Z,79.51
2023-01-09T11:20:28.728Z,80.16
2023-01-09T11:22:30.123Z,80.4
2023-01-09T11:24:31.766Z,80.31
2023-01-09T11:26:33.398Z,80.45
2023-01-09T11:28:34.853Z,80.3
2023-01-09T11:32:37.640Z,80
2023-01-09T11:34:39.175Z,79.42
2023-01-09T11:36:40.365Z,79.59
2023-01-09T11:38:41.281Z,79.37
2023-01-09T11:42:44.277Z,77.61
2023-01-09T11:44:45.406Z,77.97
2023-01-09T11:46:47.036Z,77.83
2023-01-09T11:48:48.810Z,77.25
2023-01-09T11:50:50.384Z,76.77
2023-01-09T11:52:51.748Z,77.38
2023-01-09T11:54:52.851Z,77.76
2023-01-09T11:58:56.186Z,77.41
2023-01-09T12:00:57.838Z,77.59
2023-01-09T12:02:59.355Z,77.9
2023-01-09T12:05:01.202Z,78.18
2023-01-09T12:07:02.752Z,77.64
2023-01-09T12:09:03.855Z,78.28
2023-01-09T12:09:47.677Z,78.14
2023-01-09T12:11:49.594Z,77.61
2023-01-09T12:13:51.090Z,77.95
2023-01-09T12:15:52.464Z,78.29
2023-01-09T12:17:53.781Z,78.26
2023-01-09T12:19:54.774Z,78.39
2023-01-09T12:21:56.296Z,78.52
2023-01-09T12:25:59.180Z,79.21
2023-01-09T12:28:00.182Z,79.07
2023-01-09T12:30:01.307Z,80.25
2023-01-09T12:32:02.888Z,80.97
2023-01-09T12:36:05.286Z,80.6
2023-01-09T12:38:06.482Z,81.02
2023-01-09T12:40:07.664Z,80.46
2023-01-09T12:42:09.423Z,80.77
2023-01-09T12:44:10.942Z,80.81
2023-01-09T12:46:12.558Z,81.21
2023-01-09T12:48:14.004Z,81.62
2023-01-09T12:50:15.589Z,81.48
2023-01-09T12:52:16.752Z,81.44
2023-01-09T12:54:18.093Z,81.65
2023-01-09T12:56:19.824Z,81.72
2023-01-09T12:58:21.242Z,81.54
2023-01-09T13:00:23.102Z,81.92
2023-01-09T13:02:24.363Z,81.42
2023-01-09T13:04:25.506Z,81.52
2023-01-09T13:06:26.466Z,80.73
2023-01-09T13:08:28.188Z,80.18
2023-01-09T13:10:29.491Z,80.97
2023-01-09T13:12:30.747Z,81.04
2023-01-09T13:14:32.279Z,81.07
2023-01-09T13:18:35.350Z,82.32
2023-01-09T13:20:37.026Z,83.42
2023-01-09T13:22:38.923Z,83.85
2023-01-09T13:24:40.207Z,85.52
2023-01-09T13:26:41.271Z,84.97
2023-01-09T13:28:43.014Z,86.35
2023-01-09T13:30:44.451Z,85.97
2023-01-09T13:32:46.329Z,85.31
2023-01-09T13:34:47.574Z,86.24
2023-01-09T13:36:49.164Z,86.32
2023-01-09T13:38:50.852Z,85.98
2023-01-09T13:40:52.159Z,86.06
2023-01-09T13:42:53.407Z,85.67
2023-01-09T13:44:54.838Z,86.65
2023-01-09T13:46:55.893Z,87.46
2023-01-09T13:50:59.321Z,87.49
2023-01-09T13:53:01.186Z,87.59
2023-01-09T13:55:02.393Z,87.92
2023-01-09T13:57:03.345Z,87.61
2023-01-09T14:01:07.070Z,87.71
2023-01-09T14:03:08.623Z,87.87
2023-01-09T14:05:10.170Z,87.62
2023-01-09T14:07:11.382Z,87.67
2023-01-09T14:09:12.790Z,87.05
2023-01-09T14:11:14.163Z,87.3
2023-01-09T14:13:15.349Z,86.87
2023-01-09T14:15:16.722Z,85.96
2023-01-09T14:17:17.831Z,85.8
2023-01-09T14:19:18.854Z,85.48
2023-01-09T14:21:20.003Z,85.99
2023-01-09T14:23:35.570Z,86.37
2023-01-09T14:27:24.227Z,85.79
2023-01-09T14:29:25.429Z,86.25
2023-01-09T14:31:26.816Z,86.67
2023-01-09T14:33:28.306Z,85.65
2023-01-09T14:35:29.801Z,85.69
2023-01-09T14:37:30.768Z,85.72
2023-01-09T14:39:31.928Z,85.41
2023-01-09T14:41:32.989Z,86.24
2023-01-09T14:43:34.308Z,86.4
2023-01-09T14:45:35.567Z,86.33
2023-01-09T14:49:38.298Z,87.74
2023-01-09T14:51:39.323Z,87.43
2023-01-09T14:53:41.154Z,87.06
2023-01-09T14:55:42.837Z,87.2
2023-01-09T14:59:45.645Z,87.54
2023-01-09T15:01:46.741Z,87.42
2023-01-09T15:03:47.978Z,87.22
2023-01-09T15:05:49.635Z,87.21
2023-01-09T15:07:51.240Z,87.25
2023-01-09T15:09:52.575Z,87.57
2023-01-09T15:11:53.545Z,87.19
2023-01-09T15:13:54.535Z,86.96
2023-01-09T15:15:55.932Z,85.97
2023-01-09T15:17:57.539Z,86.24
2023-01-09T15:19:59.504Z,86.44
2023-01-09T15:22:01.038Z,85.9
2023-01-09T15:24:02.565Z,86.32
2023-01-09T15:26:03.965Z,86.26
2023-01-09T15:28:04.928Z,86.48
2023-01-09T15:30:06.697Z,86.18
2023-01-09T15:32:07.861Z,86.27
2023-01-09T15:34:09.603Z,86.44
2023-01-09T15:36:10.698Z,86.26
2023-01-09T15:38:11.947Z,86.59
2023-01-09T15:42:14.009Z,86.86
2023-01-09T15:44:15.467Z,87.09
2023-01-09T15:46:17.237Z,87.33
2023-01-09T15:48:18.870Z,87.37
2023-01-09T15:50:20.407Z,87.58
2023-01-09T15:52:21.992Z,87.6
2023-01-09T15:54:23.269Z,88.12
2023-01-09T15:56:25.079Z,88.55
2023-01-09T15:58:26.979Z,88.62
2023-01-09T16:00:27.994Z,88.27
2023-01-09T16:02:29.631Z,87.81
2023-01-09T16:04:31.444Z,87.62
2023-01-09T16:06:32.591Z,87.45
2023-01-09T16:08:34.139Z,87.26
2023-01-09T16:10:35.721Z,87.09
2023-01-09T16:12:36.803Z,86.96
2023-01-09T16:14:38.782Z,86.24
2023-01-09T16:16:39.767Z,86.77
2023-01-09T16:18:40.804Z,87.04
2023-01-09T16:20:42.130Z,87.18
2023-01-09T16:24:44.732Z,86.88
2023-01-09T16:26:46.378Z,87.08
2023-01-09T16:28:47.563Z,86.8
2023-01-09T16:30:49.158Z,86.56
2023-01-09T16:32:50.846Z,86.78
2023-01-09T16:34:52.522Z,86.55
2023-01-09T16:36:53.869Z,86.47
2023-01-09T16:38:54.854Z,86.23
2023-01-09T16:40:55.846Z,86.31
2023-01-09T16:42:57.248Z,86.31
2023-01-09T16:44:58.562Z,86.18
2023-01-09T16:46:59.942Z,86.55
2023-01-09T16:49:01.317Z,86.57
2023-01-09T16:51:02.365Z,86.73
2023-01-09T16:53:03.962Z,87.04
2023-01-09T16:55:05.443Z,87.03
2023-01-09T16:57:06.629Z,87.18
2023-01-09T16:59:07.647Z,86.9
2023-01-09T17:01:08.848Z,86.93
2023-01-09T17:03:09.743Z,87.16
2023-01-09T17:05:10.893Z,86.74
2023-01-09T17:07:11.977Z,87.16
2023-01-09T17:09:13.386Z,87.04
2023-01-09T17:13:16.591Z,86.86
2023-01-09T17:15:18.212Z,86.55
2023-01-09T17:17:19.549Z,86.4
2023-01-09T17:19:21.114Z,86.4
2023-01-09T17:23:24.108Z,86.97
2023-01-09T17:25:25.840Z,86.94
2023-01-09T17:27:27.376Z,87
2023-01-09T17:29:29.361Z,87.45
2023-01-09T17:31:30.444Z,87.62
2023-01-09T17:33:32.037Z,87
2023-01-09T17:35:33.228Z,87
2023-01-09T17:37:34.467Z,87.06
2023-01-09T17:39:35.503Z,87.11
2023-01-09T17:41:37.328Z,87
2023-01-09T17:43:41.423Z,86.99
2023-01-09T17:45:40.977Z,86.96
2023-01-09T17:47:42.830Z,86.89
2023-01-09T17:49:44.056Z,86.62
2023-01-09T17:51:45.197Z,87.03
2023-01-09T17:53:46.788Z,86.68
2023-01-09T17:55:48.413Z,86.87
2023-01-09T17:57:50.310Z,87
2023-01-09T17:59:51.748Z,86.88
2023-01-09T18:01:53.630Z,87.13
2023-01-09T18:05:56.722Z,87.59
2023-01-09T18:07:57.809Z,87.67
2023-01-09T18:09:59.148Z,88.34
2023-01-09T18:12:00.897Z,88.32
2023-01-09T18:14:02.077Z,88.53
2023-01-09T18:16:03.365Z,88.81
2023-01-09T18:18:05.162Z,89
2023-01-09T18:20:06.991Z,90.03
2023-01-09T18:22:08.317Z,90.41
2023-01-09T18:24:09.847Z,90.65
2023-01-09T18:26:11.502Z,89.54
2023-01-09T18:28:13.043Z,89.82
2023-01-09T18:30:14.585Z,89.64
2023-01-09T18:32:15.773Z,89.96
2023-01-09T18:34:17.645Z,89.91
2023-01-09T18:36:19.205Z,89.76
2023-01-09T18:38:20.410Z,90.08
2023-01-09T18:40:21.758Z,90.37
2023-01-09T18:42:23.718Z,90.35
2023-01-09T18:44:25.183Z,89.73
2023-01-09T18:48:28.961Z,89.49
2023-01-09T18:50:30.488Z,88.9
2023-01-09T18:52:31.789Z,89.59
2023-01-09T18:54:32.817Z,90.04
2023-01-09T18:55:16.665Z,90.15
2023-01-09T18:57:18.447Z,90.42
2023-01-09T18:59:20.205Z,90.65
2023-01-09T19:01:22.081Z,90.46
2023-01-09T19:03:23.980Z,90.81
2023-01-09T19:05:25.164Z,91.24
2023-01-09T19:07:26.482Z,91.39
2023-01-09T19:09:28.309Z,91.26
2023-01-09T19:11:29.841Z,91.37
2023-01-09T19:15:32.446Z,91.39
2023-01-09T19:17:33.899Z,91.4
2023-01-09T19:19:35.169Z,91.63
2023-01-09T19:21:36.176Z,91.29
2023-01-09T19:25:38.604Z,92.17
2023-01-09T19:27:39.859Z,92.56
2023-01-09T19:29:41.026Z,92.59
2023-01-09T19:31:42.361Z,92.81
2023-01-09T19:33:44.088Z,92.97
2023-01-09T19:35:45.052Z,92.68
2023-01-09T19:37:47.036Z,92.83
2023-01-09T19:39:48.463Z,93.12
2023-01-09T19:41:50.245Z,93.19
2023-01-09T19:43:51.661Z,93.48
2023-01-09T19:45:53.272Z,93.58
2023-01-09T19:47:54.695Z,93.38
2023-01-09T19:49:56.668Z,93.4
2023-01-09T19:51:58.181Z,93.42
2023-01-09T19:56:00.942Z,93.65
2023-01-09T19:58:02.016Z,93.68
2023-01-09T20:00:03.304Z,93.62
2023-01-09T20:02:05.252Z,93.6
2023-01-09T20:04:06.580Z,93.82
2023-01-09T20:08:10.210Z,93.45
2023-01-09T20:10:11.604Z,93.37
2023-01-09T20:12:13.544Z,93.45
2023-01-09T20:14:15.451Z,93.3
2023-01-09T20:16:17.410Z,93.15
2023-01-09T20:18:18.763Z,92.55
2023-01-09T20:20:20.291Z,92.48
2023-01-09T20:22:21.254Z,92.69
2023-01-09T20:24:22.462Z,92.7
2023-01-09T20:26:24.172Z,92.61
2023-01-09T20:28:25.794Z,91.84
2023-01-09T20:30:26.884Z,91.97
2023-01-09T20:32:28.053Z,91.76
2023-01-09T20:34:29.707Z,91.78
2023-01-09T20:36:31.655Z,91.74
2023-01-09T20:38:33.152Z,91.54
2023-01-09T20:40:35.062Z,91.34
2023-01-09T20:42:36.739Z,91.2
2023-01-09T20:44:37.810Z,90.95
2023-01-09T20:46:39.177Z,90.98
2023-01-09T20:48:40.423Z,90.82
2023-01-09T20:50:42.411Z,91.35
2023-01-09T20:52:43.471Z,91.51
2023-01-09T20:56:46.369Z,91.52
2023-01-09T20:58:47.392Z,91.56
2023-01-09T21:00:49.380Z,91.11
2023-01-09T21:02:50.385Z,91.2
2023-01-09T21:06:53.774Z,91.16
2023-01-09T21:08:55.026Z,91.18
2023-01-09T21:10:56.229Z,91.07
2023-01-09T21:12:58.044Z,90.99
2023-01-09T21:14:59.061Z,90.88
2023-01-09T21:17:00.372Z,91.11
2023-01-09T21:19:02.251Z,90.84
2023-01-09T21:21:03.791Z,90.83
2023-01-09T21:23:05.679Z,91.3
2023-01-09T21:25:07.415Z,91.37
2023-01-09T21:27:08.980Z,91.48
2023-01-09T21:29:10.876Z,91.38
2023-01-09T21:31:12.196Z,91.45
2023-01-09T21:33:14.085Z,91.6
2023-01-09T21:35:16.026Z,91.75
2023-01-09T21:37:17.201Z,91.87
2023-01-09T21:39:18.347Z,91.92
2023-01-09T21:41:19.400Z,92.04
2023-01-09T21:43:21.334Z,91.82
2023-01-09T21:45:22.415Z,91.68
2023-01-09T21:49:24.763Z,91.69
2023-01-09T21:51:26.064Z,91.69
2023-01-09T21:53:27.739Z,91.88
2023-01-09T21:55:29.212Z,91.75
2023-01-09T21:57:30.626Z,91.78
2023-01-09T21:59:32.232Z,91.74
2023-01-09T22:01:33.722Z,91.71
2023-01-09T22:03:35.549Z,91.8
2023-01-09T22:05:37.257Z,91.68
2023-01-09T22:07:38.764Z,91.54
2023-01-09T22:09:40.189Z,91.27
2023-01-09T22:11:41.324Z,91.44
2023-01-09T22:13:42.863Z,91.44
2023-01-09T22:15:44.829Z,91.29
2023-01-09T22:17:46.263Z,91.46
2023-01-09T22:19:47.645Z,91.52
2023-01-09T22:21:49.406Z,91.56
2023-01-09T22:23:50.815Z,91.5
2023-01-09T22:25:52.523Z,91.43
2023-01-09T22:27:54.345Z,91.47
2023-01-09T22:31:57.531Z,91.45
2023-01-09T22:33:58.687Z,90.72
2023-01-09T22:36:00.001Z,90.96
2023-01-09T22:38:01.239Z,90.83
2023-01-09T22:40:02.916Z,90.62
2023-01-09T22:42:04.466Z,90.33
2023-01-09T22:44:06.223Z,90.09
2023-01-09T22:46:10.401Z,90.02
2023-01-09T22:48:09.499Z,90.42
2023-01-09T22:50:10.978Z,90.7
2023-01-09T22:52:12.088Z,90.63
2023-01-09T22:54:13.195Z,90.89
2023-01-09T22:56:14.376Z,91.22
2023-01-09T22:58:15.499Z,91.37
2023-01-09T23:00:16.835Z,91.68
2023-01-09T23:04:19.595Z,91.69
2023-01-09T23:06:21.480Z,91.85
2023-01-09T23:08:23.452Z,92.19
2023-01-09T23:10:24.470Z,92.46
2023-01-09T23:14:27.373Z,92.67
2023-01-09T23:16:29.298Z,92.6
2023-01-09T23:18:31.030Z,92.12
2023-01-09T23:20:32.227Z,92.2
2023-01-09T23:22:33.227Z,92.36
2023-01-09T23:24:34.766Z,92.32
2023-01-09T23:26:36.216Z,92.44
2023-01-09T23:28:38.115Z,92.5
2023-01-09T23:30:39.947Z,92.28
2023-01-09T23:32:41.141Z,92.42
2023-01-09T23:34:43.130Z,92.63
2023-01-09T23:36:45.184Z,92.83
2023-01-09T23:38:46.807Z,92.96
2023-01-09T23:40:47.993Z,93.13
2023-01-09T23:42:49.572Z,93.04
2023-01-09T23:46:53.054Z,93.66
2023-01-09T23:48:54.618Z,93.97
2023-01-09T23:50:55.916Z,94.21
2023-01-09T23:52:57.400Z,94.29
2023-01-09T23:56:59.871Z,94.11
2023-01-09T23:59:01.535Z,94.34
